Time;durP1;ratioP1;P1;durP2;ratioP2;P2;SDS_P1;SDS_P2;PMS_P1;PMS_P2;Temp;Humidity;BMP_temperature;BMP_pressure;BME280_temperature;BME280_humidity;BME280_pressure;Samples;Min_cycle;Max_cycle;Signal;HPM_P1;HPM_P2
2023/09/24 00:01:44;;;;;;;85.60;8.23;;;10.70;99.90;;;;;;5072897;28;20397;-80
2023/09/24 00:04:10;;;;;;;4.47;2.65;;;10.60;99.90;;;;;;5070089;28;20070;-79
2023/09/24 00:06:36;;;;;;;18.40;4.07;;;10.60;99.90;;;;;;5066894;28;20499;-80
2023/09/24 00:09:03;;;;;;;48.42;6.05;;;10.60;99.90;;;;;;5072688;28;20057;-79
2023/09/24 00:11:28;;;;;;;7.30;3.20;;;10.60;99.90;;;;;;5073104;28;20063;-81
2023/09/24 00:13:54;;;;;;;26.30;5.10;;;10.50;99.90;;;;;;5073433;28;20545;-80
2023/09/24 00:16:20;;;;;;;11.77;3.40;;;10.50;99.90;;;;;;5072130;28;20485;-79
2023/09/24 00:18:46;;;;;;;11.73;3.58;;;10.60;99.90;;;;;;5072022;28;20052;-79
2023/09/24 00:21:12;;;;;;;8.43;3.38;;;10.70;99.90;;;;;;5073298;28;20045;-77
2023/09/24 00:23:39;;;;;;;4.97;3.22;;;10.80;99.90;;;;;;5072749;28;20083;-77
2023/09/24 00:26:05;;;;;;;6.63;3.47;;;10.90;99.90;;;;;;5073624;28;20052;-77
2023/09/24 00:28:31;;;;;;;4.80;3.10;;;11.00;99.90;;;;;;5073303;28;20048;-77
2023/09/24 00:30:58;;;;;;;4.93;2.97;;;11.00;99.90;;;;;;5073536;28;20049;-77
2023/09/24 00:33:24;;;;;;;4.90;3.10;;;11.00;99.90;;;;;;5073656;28;20056;-77
2023/09/24 00:35:51;;;;;;;5.05;3.08;;;10.90;99.90;;;;;;5072704;28;20048;-77
2023/09/24 00:38:20;;;;;;;4.82;3.05;;;10.80;99.90;;;;;;5072413;28;20044;-77
2023/09/24 00:40:46;;;;;;;5.07;2.80;;;10.70;99.90;;;;;;5073309;28;20051;-78
2023/09/24 00:43:26;;;;;;;5.10;2.83;;;10.60;99.90;;;;;;5072565;28;20048;-78
2023/09/24 00:45:52;;;;;;;3.95;2.47;;;10.60;99.90;;;;;;5073743;28;20056;-78
2023/09/24 00:48:18;;;;;;;5.05;3.10;;;10.50;99.90;;;;;;5073915;28;20049;-78
2023/09/24 00:50:44;;;;;;;7.38;3.03;;;10.50;99.90;;;;;;5073470;28;20044;-78
2023/09/24 00:53:10;;;;;;;20.33;3.63;;;10.50;99.90;;;;;;5074237;28;20045;-78
2023/09/24 00:55:36;;;;;;;12.52;3.20;;;10.40;99.90;;;;;;5073400;28;20045;-77
2023/09/24 00:58:03;;;;;;;6.53;3.00;;;10.40;99.90;;;;;;5072231;28;20067;-77
2023/09/24 01:00:34;;;;;;;5.60;3.45;;;10.40;99.90;;;;;;5073627;28;20095;-77
2023/09/24 01:03:00;;;;;;;5.97;3.30;;;10.40;99.90;;;;;;5073243;28;20101;-77
2023/09/24 01:05:27;;;;;;;4.18;2.95;;;10.50;99.90;;;;;;5074060;28;20048;-77
2023/09/24 01:07:54;;;;;;;6.07;3.38;;;10.50;99.90;;;;;;5073124;28;20540;-77
2023/09/24 01:10:23;;;;;;;6.57;3.72;;;10.60;99.90;;;;;;5073085;28;20093;-77
2023/09/24 01:13:01;;;;;;;7.50;3.72;;;10.60;99.90;;;;;;5073258;28;20095;-78
2023/09/24 01:15:31;;;;;;;5.70;3.50;;;10.50;99.90;;;;;;5073796;28;20093;-77
2023/09/24 01:17:57;;;;;;;10.98;3.85;;;10.50;99.90;;;;;;5073981;28;20048;-77
2023/09/24 01:20:27;;;;;;;119.20;10.43;;;10.40;99.90;;;;;;5072218;28;20055;-78
2023/09/24 01:22:52;;;;;;;77.53;7.85;;;10.40;99.90;;;;;;5073089;28;20117;-77
2023/09/24 01:25:18;;;;;;;111.50;10.15;;;10.10;99.90;;;;;;5073093;28;20090;-78
2023/09/24 01:27:45;;;;;;;81.82;8.63;;;10.00;99.90;;;;;;5073043;28;20176;-79
2023/09/24 01:30:12;;;;;;;42.15;6.43;;;10.10;99.90;;;;;;5073279;28;20063;-79
2023/09/24 01:32:40;;;;;;;43.10;6.18;;;10.20;99.90;;;;;;5072397;28;20052;-78
2023/09/24 01:35:07;;;;;;;29.75;5.95;;;10.20;99.90;;;;;;5071921;28;20500;-78
2023/09/24 01:37:34;;;;;;;40.20;7.03;;;10.40;99.90;;;;;;5072338;28;20051;-78
2023/09/24 01:40:32;;;;;;;30.80;7.50;;;10.50;99.90;;;;;;5072923;28;20051;-78
2023/09/24 01:42:56;;;;;;;34.72;7.80;;;10.80;99.90;;;;;;5072365;28;20482;-78
2023/09/24 01:45:21;;;;;;;28.33;6.40;;;10.80;99.90;;;;;;5072436;28;20045;-79
2023/09/24 01:47:49;;;;;;;26.15;6.57;;;10.90;99.90;;;;;;5071878;28;20127;-78
2023/09/24 01:50:18;;;;;;;23.23;6.55;;;10.90;99.90;;;;;;5072077;28;20117;-78
2023/09/24 01:52:47;;;;;;;21.55;6.60;;;10.90;99.90;;;;;;5074325;28;20387;-78
2023/09/24 01:55:16;;;;;;;20.63;6.20;;;11.00;99.90;;;;;;5076446;28;20097;-78
2023/09/24 01:57:43;;;;;;;29.27;6.30;;;11.00;99.90;;;;;;5076358;28;20106;-78
2023/09/24 02:00:15;;;;;;;22.95;6.13;;;11.00;99.90;;;;;;5076869;28;20123;-78
2023/09/24 02:02:42;;;;;;;16.45;5.55;;;11.10;99.90;;;;;;5076789;28;20040;-78
2023/09/24 02:05:10;;;;;;;26.67;6.40;;;11.00;99.90;;;;;;5076189;28;20045;-78
2023/09/24 02:07:40;;;;;;;15.80;5.32;;;11.00;99.90;;;;;;5074957;28;20056;-77
2023/09/24 02:10:07;;;;;;;25.95;6.53;;;11.10;99.90;;;;;;5075686;28;20123;-77
2023/09/24 02:12:36;;;;;;;20.55;5.38;;;11.00;99.90;;;;;;5076041;28;20056;-78
2023/09/24 02:15:10;;;;;;;17.92;5.50;;;11.10;99.90;;;;;;5076322;28;20071;-77
2023/09/24 02:17:40;;;;;;;19.25;5.72;;;11.00;99.90;;;;;;5076045;28;20045;-77
2023/09/24 02:20:27;;;;;;;13.43;5.60;;;11.00;99.90;;;;;;5075949;28;20123;-77
2023/09/24 02:22:58;;;;;;;21.67;5.28;;;11.00;99.90;;;;;;5074597;28;20102;-77
2023/09/24 02:25:25;;;;;;;12.23;4.90;;;11.00;99.90;;;;;;5076960;28;20382;-77
2023/09/24 02:27:51;;;;;;;13.07;4.97;;;11.00;99.90;;;;;;5075458;28;20621;-78
2023/09/24 02:30:21;;;;;;;13.05;5.00;;;11.00;99.90;;;;;;5074670;28;20070;-77
2023/09/24 02:32:47;;;;;;;10.70;4.88;;;11.00;99.90;;;;;;5075682;28;20477;-77
2023/09/24 02:35:14;;;;;;;13.23;5.47;;;11.00;99.90;;;;;;5075662;28;20127;-77
2023/09/24 02:37:45;;;;;;;11.05;5.45;;;10.90;99.90;;;;;;5074508;28;20101;-77
2023/09/24 02:40:26;;;;;;;11.80;5.05;;;10.90;99.90;;;;;;5075497;28;20041;-78
2023/09/24 02:42:57;;;;;;;11.63;5.00;;;10.90;99.90;;;;;;5076150;28;20098;-77
2023/09/24 02:45:24;;;;;;;13.35;5.25;;;10.80;99.90;;;;;;5076233;28;20436;-77
2023/09/24 02:47:50;;;;;;;10.45;4.95;;;10.80;99.90;;;;;;5074336;28;20053;-77
2023/09/24 02:50:23;;;;;;;9.25;4.55;;;10.80;99.90;;;;;;5075372;28;20040;-77
2023/09/24 02:52:51;;;;;;;6.88;4.15;;;10.80;99.90;;;;;;5075227;28;20082;-77
2023/09/24 02:55:19;;;;;;;9.82;4.97;;;10.70;99.90;;;;;;5075368;28;20055;-77
2023/09/24 02:57:46;;;;;;;10.27;4.88;;;10.70;99.90;;;;;;5076058;28;20076;-77
2023/09/24 03:00:20;;;;;;;7.75;5.15;;;10.50;99.90;;;;;;5076270;28;20132;-77
2023/09/24 03:02:47;;;;;;;9.20;4.68;;;10.60;99.90;;;;;;5076148;28;20048;-78
2023/09/24 03:05:20;;;;;;;8.48;4.40;;;10.60;99.90;;;;;;5078117;28;20370;-77
2023/09/24 03:07:46;;;;;;;7.43;4.78;;;10.50;99.90;;;;;;5075267;28;20496;-77
2023/09/24 03:10:13;;;;;;;8.20;4.47;;;10.50;99.90;;;;;;5075257;28;20125;-78
2023/09/24 03:12:40;;;;;;;6.50;4.05;;;10.40;99.90;;;;;;5074930;28;20045;-77
2023/09/24 03:15:06;;;;;;;6.32;3.97;;;10.50;99.90;;;;;;5073761;28;20139;-77
2023/09/24 03:17:35;;;;;;;7.55;4.35;;;10.40;99.90;;;;;;5074746;28;20052;-77
2023/09/24 03:20:04;;;;;;;6.18;4.35;;;10.30;99.90;;;;;;5074757;28;20044;-77
2023/09/24 03:22:30;;;;;;;7.30;4.38;;;10.30;99.90;;;;;;5073782;28;20045;-77
2023/09/24 03:24:57;;;;;;;7.55;4.40;;;10.30;99.90;;;;;;5074831;28;20054;-77
2023/09/24 03:27:23;;;;;;;6.07;4.07;;;10.20;99.90;;;;;;5074646;28;20056;-77
2023/09/24 03:29:48;;;;;;;7.57;4.40;;;10.20;99.90;;;;;;5074427;28;20113;-78
2023/09/24 03:32:15;;;;;;;6.53;4.43;;;10.10;99.90;;;;;;5074505;28;20057;-77
2023/09/24 03:34:40;;;;;;;9.77;4.78;;;10.10;99.90;;;;;;5074973;28;20048;-78
2023/09/24 03:37:09;;;;;;;7.55;5.05;;;10.10;99.90;;;;;;5075093;28;20388;-77
2023/09/24 03:39:35;;;;;;;8.40;4.55;;;10.20;99.90;;;;;;5074173;28;20432;-77
2023/09/24 03:42:01;;;;;;;7.63;5.00;;;10.20;99.90;;;;;;5074228;28;20052;-77
2023/09/24 03:44:26;;;;;;;8.38;4.93;;;10.00;99.90;;;;;;5074244;28;20052;-77
2023/09/24 03:46:52;;;;;;;7.15;4.78;;;10.00;99.90;;;;;;5074190;28;20045;-78
2023/09/24 03:49:18;;;;;;;7.60;4.68;;;10.00;99.90;;;;;;5074078;28;20047;-78
2023/09/24 03:51:43;;;;;;;6.72;4.55;;;10.10;99.90;;;;;;5074215;28;20044;-78
2023/09/24 03:54:09;;;;;;;7.93;4.82;;;10.10;99.90;;;;;;5074063;28;20045;-77
2023/09/24 03:56:34;;;;;;;5.90;4.45;;;10.00;99.90;;;;;;5074033;28;20135;-77
2023/09/24 03:59:00;;;;;;;6.05;4.30;;;9.90;99.90;;;;;;5074114;28;20111;-77
2023/09/24 04:01:26;;;;;;;6.00;4.32;;;9.90;99.90;;;;;;5073921;28;20036;-77
2023/09/24 04:03:51;;;;;;;7.97;4.57;;;9.80;99.90;;;;;;5073969;28;20047;-76
2023/09/24 04:06:17;;;;;;;9.48;4.78;;;9.80;99.90;;;;;;5073918;28;20041;-77
2023/09/24 04:08:43;;;;;;;10.57;4.93;;;9.90;99.90;;;;;;5072679;28;20047;-77
2023/09/24 04:11:12;;;;;;;6.35;4.43;;;9.80;99.90;;;;;;5073873;28;20045;-77
2023/09/24 04:13:38;;;;;;;5.70;4.32;;;9.90;99.90;;;;;;5073800;28;20515;-77
2023/09/24 04:16:14;;;;;;;7.60;4.38;;;9.90;99.90;;;;;;5072269;28;20099;-77
2023/09/24 04:18:44;;;;;;;6.97;4.63;;;9.90;99.90;;;;;;5074580;28;20044;-77
2023/09/24 04:21:15;;;;;;;7.72;4.93;;;9.90;99.90;;;;;;5074025;28;20422;-77
2023/09/24 04:23:42;;;;;;;9.15;4.85;;;10.00;99.90;;;;;;5073802;28;20048;-77
2023/09/24 04:26:16;;;;;;;9.60;5.03;;;10.00;99.90;;;;;;5073586;28;20048;-77
2023/09/24 04:28:41;;;;;;;8.75;5.38;;;9.90;99.90;;;;;;5074252;28;20045;-78
2023/09/24 04:31:07;;;;;;;11.57;4.70;;;9.90;99.90;;;;;;5074179;28;20466;-77
2023/09/24 04:33:34;;;;;;;7.03;5.10;;;9.90;99.90;;;;;;5072674;28;20431;-77
2023/09/24 04:36:00;;;;;;;8.70;5.10;;;9.90;99.90;;;;;;5073199;28;20051;-79
2023/09/24 04:38:25;;;;;;;9.07;5.35;;;10.00;99.90;;;;;;5073914;28;20470;-78
2023/09/24 04:40:51;;;;;;;8.25;4.85;;;9.90;99.90;;;;;;5074082;28;20362;-77
2023/09/24 04:43:18;;;;;;;8.48;4.50;;;10.00;99.90;;;;;;5073301;28;20153;-76
2023/09/24 04:45:43;;;;;;;6.28;4.35;;;9.90;99.90;;;;;;5073559;28;20132;-76
2023/09/24 04:48:09;;;;;;;8.02;4.90;;;9.80;99.90;;;;;;5074241;28;20127;-76
2023/09/24 04:50:35;;;;;;;6.47;4.45;;;9.70;99.90;;;;;;5073220;28;20400;-77
2023/09/24 04:53:01;;;;;;;7.07;4.43;;;9.80;99.90;;;;;;5072279;28;20044;-77
2023/09/24 04:55:26;;;;;;;7.07;4.40;;;9.80;99.90;;;;;;5073306;28;20076;-77
2023/09/24 04:57:52;;;;;;;6.25;4.13;;;9.80;99.90;;;;;;5073430;28;20052;-77
2023/09/24 05:00:18;;;;;;;7.50;4.72;;;9.70;99.90;;;;;;5073415;28;20058;-78
2023/09/24 05:02:44;;;;;;;7.07;5.25;;;9.60;99.90;;;;;;5073410;28;20142;-78
2023/09/24 05:05:10;;;;;;;9.68;4.90;;;9.70;99.90;;;;;;5073331;28;20397;-77
2023/09/24 05:07:35;;;;;;;7.00;4.90;;;9.70;99.90;;;;;;5073845;28;20079;-77
2023/09/24 05:10:01;;;;;;;8.18;4.88;;;9.80;99.90;;;;;;5073814;28;20052;-77
2023/09/24 05:12:27;;;;;;;9.90;5.50;;;9.70;99.90;;;;;;5072087;28;20044;-78
2023/09/24 05:14:52;;;;;;;12.05;5.43;;;9.90;99.90;;;;;;5072509;28;20048;-78
2023/09/24 05:17:18;;;;;;;7.30;4.93;;;9.70;99.90;;;;;;5073096;28;20045;-77
2023/09/24 05:19:44;;;;;;;8.35;5.22;;;9.80;99.90;;;;;;5073724;28;20044;-77
2023/09/24 05:22:09;;;;;;;11.30;4.28;;;9.80;99.90;;;;;;5073049;28;20052;-78
2023/09/24 05:24:35;;;;;;;8.23;4.65;;;9.70;99.90;;;;;;5072104;28;20060;-77
2023/09/24 05:27:01;;;;;;;6.65;4.75;;;9.80;99.90;;;;;;5073612;28;20044;-78
2023/09/24 05:29:26;;;;;;;7.57;5.20;;;9.60;99.90;;;;;;5076519;28;20102;-77
2023/09/24 05:31:52;;;;;;;9.20;4.97;;;9.70;99.90;;;;;;5075443;28;20194;-77
2023/09/24 05:34:18;;;;;;;9.38;4.50;;;9.60;99.90;;;;;;5076771;28;20045;-77
2023/09/24 05:36:43;;;;;;;9.15;5.25;;;9.70;99.90;;;;;;5077051;28;20036;-77
2023/09/24 05:39:09;;;;;;;10.02;5.45;;;9.70;99.90;;;;;;5075488;28;20051;-77
2023/09/24 05:41:35;;;;;;;7.10;4.20;;;9.70;99.90;;;;;;5076655;28;20087;-77
2023/09/24 05:44:04;;;;;;;5.28;3.25;;;9.80;99.90;;;;;;5077212;28;20099;-77
2023/09/24 05:46:30;;;;;;;8.32;4.40;;;9.60;99.90;;;;;;5076532;28;20040;-77
2023/09/24 05:48:58;;;;;;;7.90;5.20;;;9.80;99.90;;;;;;5075371;28;20040;-77
2023/09/24 05:51:24;;;;;;;8.98;5.38;;;9.80;99.90;;;;;;5076517;28;20094;-77
2023/09/24 05:53:52;;;;;;;11.50;5.93;;;9.80;99.90;;;;;;5075242;28;20136;-77
2023/09/24 05:56:18;;;;;;;8.57;4.15;;;9.90;99.90;;;;;;5076926;28;20060;-77
2023/09/24 05:58:44;;;;;;;8.77;5.20;;;9.80;99.90;;;;;;5076395;28;20044;-77
2023/09/24 06:01:16;;;;;;;7.55;4.57;;;9.80;99.90;;;;;;5076223;28;20474;-77
2023/09/24 06:03:42;;;;;;;11.27;5.97;;;9.90;99.90;;;;;;5076309;28;20135;-77
2023/09/24 06:06:09;;;;;;;9.73;5.45;;;9.90;99.90;;;;;;5076499;28;20119;-77
2023/09/24 06:08:36;;;;;;;10.90;6.03;;;10.00;99.90;;;;;;5076110;28;20393;-77
2023/09/24 06:11:02;;;;;;;7.72;4.40;;;9.90;99.90;;;;;;5075317;28;20052;-77
2023/09/24 06:13:28;;;;;;;8.30;4.50;;;10.00;99.90;;;;;;5076929;28;20136;-77
2023/09/24 06:16:02;;;;;;;10.48;4.72;;;10.00;99.90;;;;;;5075944;28;20059;-78
2023/09/24 06:18:28;;;;;;;8.98;5.57;;;10.00;99.90;;;;;;5076132;28;20045;-77
2023/09/24 06:20:56;;;;;;;11.52;5.70;;;10.10;99.90;;;;;;5075943;28;20055;-76
2023/09/24 06:23:22;;;;;;;10.10;5.10;;;10.10;99.90;;;;;;5075901;28;20044;-76
2023/09/24 06:25:58;;;;;;;11.52;5.80;;;10.10;99.90;;;;;;5075794;28;20051;-77
2023/09/24 06:28:27;;;;;;;9.75;5.60;;;10.20;99.90;;;;;;5075046;28;20389;-77
2023/09/24 06:31:03;;;;;;;8.98;5.22;;;10.20;99.90;;;;;;5075310;28;20096;-77
2023/09/24 06:33:29;;;;;;;;;;;10.30;99.90;;;;;;5076371;28;20190;-77
2023/09/24 06:35:55;;;;;;;12.97;5.60;;;10.20;99.90;;;;;;5075737;28;19968;-77
2023/09/24 06:38:21;;;;;;;8.90;5.72;;;10.30;99.90;;;;;;5075267;28;20045;-77
2023/09/24 06:40:55;;;;;;;9.57;5.80;;;10.40;99.90;;;;;;5076069;28;20053;-77
2023/09/24 06:43:21;;;;;;;11.27;6.57;;;10.50;99.90;;;;;;5075538;28;20119;-77
2023/09/24 06:45:46;;;;;;;10.30;6.40;;;10.50;99.90;;;;;;5075142;28;20086;-77
2023/09/24 06:48:12;;;;;;;14.75;7.50;;;10.60;99.90;;;;;;5075285;28;20094;-69
2023/09/24 06:50:38;;;;;;;10.20;5.97;;;10.60;99.90;;;;;;5075428;28;20128;-69
2023/09/24 06:53:03;;;;;;;12.05;6.43;;;10.70;99.90;;;;;;5075774;28;20079;-69
2023/09/24 06:55:29;;;;;;;12.20;6.43;;;10.80;99.90;;;;;;5074675;28;20044;-70
2023/09/24 06:57:55;;;;;;;11.07;6.68;;;10.80;99.90;;;;;;5075304;28;20057;-70
2023/09/24 07:00:21;;;;;;;9.55;6.15;;;10.80;99.90;;;;;;5075196;28;20040;-70
2023/09/24 07:02:46;;;;;;;10.05;6.32;;;11.00;99.90;;;;;;5075098;28;20040;-71
2023/09/24 07:05:12;;;;;;;9.98;6.30;;;11.00;99.90;;;;;;5075049;28;20500;-70
2023/09/24 07:07:38;;;;;;;11.27;5.97;;;11.20;99.90;;;;;;5075029;28;20105;-70
2023/09/24 07:10:04;;;;;;;10.15;6.40;;;11.10;99.90;;;;;;5075121;28;20076;-71
2023/09/24 07:12:30;;;;;;;14.90;7.32;;;11.10;99.90;;;;;;5075104;28;20048;-70
2023/09/24 07:14:55;;;;;;;9.60;6.20;;;11.20;99.90;;;;;;5074970;28;20469;-70
2023/09/24 07:17:21;;;;;;;12.52;6.70;;;11.20;99.90;;;;;;5075102;28;20040;-69
2023/09/24 07:19:47;;;;;;;11.23;6.07;;;11.30;99.90;;;;;;5074780;28;20370;-69
2023/09/24 07:22:13;;;;;;;7.45;5.65;;;11.40;99.90;;;;;;5074702;28;20135;-69
2023/09/24 07:24:39;;;;;;;9.65;5.43;;;11.50;99.90;;;;;;5073481;28;20101;-70
2023/09/24 07:27:05;;;;;;;10.63;5.93;;;11.50;99.90;;;;;;5074585;28;20044;-71
2023/09/24 07:29:31;;;;;;;9.63;5.90;;;11.60;99.90;;;;;;5072347;28;20059;-69
2023/09/24 07:31:57;;;;;;;11.30;6.43;;;11.70;99.90;;;;;;5074850;28;20082;-69
2023/09/24 07:34:23;;;;;;;9.45;5.63;;;11.70;99.90;;;;;;5074298;28;20056;-68
2023/09/24 07:36:49;;;;;;;9.02;5.63;;;11.70;99.90;;;;;;5074178;28;20409;-69
2023/09/24 07:39:15;;;;;;;8.35;5.53;;;11.80;99.90;;;;;;5074602;28;20066;-68
2023/09/24 07:41:40;;;;;;;8.88;5.75;;;11.80;99.90;;;;;;5074313;28;20096;-68
2023/09/24 07:44:06;;;;;;;9.20;5.70;;;11.90;99.90;;;;;;5074442;28;20045;-68
2023/09/24 07:46:32;;;;;;;9.27;6.15;;;12.00;99.90;;;;;;5074292;28;20048;-69
2023/09/24 07:48:58;;;;;;;8.32;5.35;;;12.00;99.90;;;;;;5073425;28;20040;-69
2023/09/24 07:51:24;;;;;;;7.63;5.25;;;12.10;99.90;;;;;;5073857;28;20053;-68
2023/09/24 07:53:50;;;;;;;10.52;5.38;;;12.10;99.90;;;;;;5072912;28;20040;-68
2023/09/24 07:56:17;;;;;;;9.93;5.65;;;12.20;99.90;;;;;;5073760;28;20481;-68
2023/09/24 07:58:43;;;;;;;10.02;5.65;;;12.30;99.90;;;;;;5074743;28;20075;-69
2023/09/24 08:01:14;;;;;;;8.23;5.05;;;12.30;99.90;;;;;;5072740;28;20045;-69
2023/09/24 08:03:43;;;;;;;10.75;5.70;;;12.40;99.90;;;;;;5073755;28;20102;-68
2023/09/24 08:06:09;;;;;;;8.50;5.90;;;12.50;99.90;;;;;;5073796;28;20044;-69
2023/09/24 08:08:35;;;;;;;8.50;5.50;;;12.60;99.90;;;;;;5073729;28;20530;-69
2023/09/24 08:11:01;;;;;;;7.90;4.82;;;12.70;99.90;;;;;;5073698;28;20062;-69
2023/09/24 08:13:27;;;;;;;9.95;6.15;;;12.80;99.90;;;;;;5073729;28;20102;-69
2023/09/24 08:15:56;;;;;;;6.25;4.65;;;12.90;99.90;;;;;;5074630;28;20052;-69
2023/09/24 08:18:22;;;;;;;10.25;5.15;;;13.00;99.90;;;;;;5073783;28;20044;-67
2023/09/24 08:20:49;;;;;;;8.18;4.95;;;13.10;99.90;;;;;;5073952;28;20044;-68
2023/09/24 08:23:15;;;;;;;9.48;5.40;;;13.20;99.90;;;;;;5073667;28;20048;-68
2023/09/24 08:25:41;;;;;;;6.20;4.50;;;13.30;99.90;;;;;;5073769;28;20042;-68
2023/09/24 08:28:08;;;;;;;8.07;4.75;;;13.30;99.90;;;;;;5073615;28;20125;-67
2023/09/24 08:30:34;;;;;;;8.38;5.45;;;13.40;99.90;;;;;;5073685;28;20094;-68
2023/09/24 08:33:01;;;;;;;8.00;4.45;;;13.50;99.90;;;;;;5074394;28;20121;-67
2023/09/24 08:35:27;;;;;;;7.15;4.68;;;13.60;99.90;;;;;;5073579;28;20054;-68
2023/09/24 08:37:53;;;;;;;8.07;4.85;;;13.70;99.90;;;;;;5073561;28;20044;-69
2023/09/24 08:40:19;;;;;;;8.50;4.75;;;13.80;99.90;;;;;;5072140;28;20052;-68
2023/09/24 08:42:47;;;;;;;6.97;4.18;;;13.80;99.90;;;;;;5073049;28;20525;-67
2023/09/24 08:45:15;;;;;;;7.82;4.80;;;13.90;99.90;;;;;;5073374;28;20048;-67
2023/09/24 08:47:44;;;;;;;9.18;5.40;;;14.00;99.90;;;;;;5073332;28;20045;-68
2023/09/24 08:50:10;;;;;;;8.05;4.85;;;14.00;99.90;;;;;;5072053;28;20048;-68
2023/09/24 08:52:38;;;;;;;9.23;4.40;;;14.10;99.90;;;;;;5073509;28;20177;-67
2023/09/24 08:55:09;;;;;;;8.07;4.75;;;14.20;99.90;;;;;;5072965;28;20045;-67
2023/09/24 08:57:36;;;;;;;7.88;4.43;;;14.30;99.90;;;;;;5072850;28;20088;-68
2023/09/24 09:00:04;;;;;;;6.05;4.18;;;14.40;99.90;;;;;;5072942;28;20489;-67
2023/09/24 09:02:30;;;;;;;7.63;3.60;;;14.50;99.90;;;;;;5077308;28;20124;-68
2023/09/24 09:04:56;;;;;;;7.22;4.13;;;14.50;99.90;;;;;;5077631;28;20160;-67
2023/09/24 09:07:21;;;;;;;6.53;3.90;;;14.60;99.90;;;;;;5077304;28;20047;-67
2023/09/24 09:09:59;;;;;;;5.35;3.45;;;14.70;99.90;;;;;;5075925;28;20048;-67
2023/09/24 09:12:29;;;;;;;8.35;4.05;;;14.80;99.90;;;;;;5077219;28;20140;-67
2023/09/24 09:14:55;;;;;;;5.88;3.65;;;14.90;99.90;;;;;;5077669;28;20048;-67
2023/09/24 09:17:21;;;;;;;5.90;3.33;;;15.00;99.90;;;;;;5077128;28;20076;-67
2023/09/24 09:19:55;;;;;;;5.10;3.42;;;15.00;99.90;;;;;;5075971;28;20067;-67
2023/09/24 09:22:29;;;;;;;6.60;3.45;;;15.10;99.90;;;;;;5077132;28;20496;-67
2023/09/24 09:25:06;;;;;;;5.70;2.85;;;15.20;99.90;;;;;;5076999;28;20045;-66
2023/09/24 09:27:39;;;;;;;4.72;2.63;;;15.30;99.90;;;;;;5076910;28;20048;-66
2023/09/24 09:30:15;;;;;;;4.65;2.40;;;15.50;99.90;;;;;;5076384;28;20095;-66
2023/09/24 09:32:41;;;;;;;5.88;2.40;;;15.60;99.90;;;;;;5076834;28;20095;-66
2023/09/24 09:35:07;;;;;;;5.15;2.03;;;15.70;99.90;;;;;;5076746;28;20055;-66
2023/09/24 09:37:33;;;;;;;4.28;2.17;;;15.80;99.90;;;;;;5076687;28;20101;-67
2023/09/24 09:39:59;;;;;;;4.85;1.90;;;15.80;99.90;;;;;;5077724;28;20119;-66
2023/09/24 09:42:28;;;;;;;6.38;2.78;;;15.90;99.90;;;;;;5076590;28;20044;-66
2023/09/24 09:44:55;;;;;;;4.65;1.95;;;16.00;99.90;;;;;;5076604;28;20138;-66
2023/09/24 09:47:25;;;;;;;4.90;2.03;;;16.00;99.90;;;;;;5076506;28;20059;-66
2023/09/24 09:50:01;;;;;;;4.90;1.98;;;16.00;99.90;;;;;;5077209;28;20040;-67
2023/09/24 09:52:34;;;;;;;3.92;1.67;;;16.00;99.90;;;;;;5076712;28;20045;-67
2023/09/24 09:55:05;;;;;;;4.38;1.60;;;16.10;99.90;;;;;;5075641;28;20052;-67
2023/09/24 09:57:34;;;;;;;3.03;1.60;;;16.10;99.90;;;;;;5076186;28;20102;-67
2023/09/24 10:00:01;;;;;;;3.63;1.75;;;16.30;99.90;;;;;;5076781;28;20040;-67
2023/09/24 10:02:30;;;;;;;3.30;1.83;;;16.40;99.90;;;;;;5075273;28;20055;-66
2023/09/24 10:04:57;;;;;;;4.43;2.00;;;16.50;99.90;;;;;;5076159;28;20398;-66
2023/09/24 10:07:23;;;;;;;4.57;1.60;;;16.60;99.90;;;;;;5076819;28;20136;-67
2023/09/24 10:09:50;;;;;;;3.22;1.77;;;16.80;99.90;;;;;;5076002;28;20385;-67
2023/09/24 10:12:36;;;;;;;4.13;1.95;;;17.00;99.90;;;;;;5074027;28;20087;-67
2023/09/24 10:15:28;;;;;;;4.15;1.77;;;17.20;99.90;;;;;;5076384;28;20044;-68
2023/09/24 10:18:22;;;;;;;3.38;1.80;;;17.40;99.90;;;;;;5075944;28;20048;-67
2023/09/24 10:20:53;;;;;;;4.10;1.70;;;17.30;99.90;;;;;;5076264;28;20374;-67
2023/09/24 10:23:31;;;;;;;5.57;2.00;;;17.20;99.90;;;;;;5075820;28;20053;-67
2023/09/24 10:26:02;;;;;;;3.75;1.60;;;17.30;99.90;;;;;;5075796;28;20052;-68
2023/09/24 10:28:47;;;;;;;5.15;1.73;;;17.40;99.90;;;;;;5075967;28;20432;-68
2023/09/24 10:31:13;;;;;;;3.63;1.70;;;17.60;99.90;;;;;;5075657;28;20507;-68
2023/09/24 10:33:58;;;;;;;3.70;2.00;;;17.70;99.90;;;;;;5075604;28;20052;-68
2023/09/24 10:36:33;;;;;;;4.13;1.88;;;17.70;99.90;;;;;;5075617;28;20055;-68
2023/09/24 10:39:11;;;;;;;3.38;1.60;;;17.70;99.90;;;;;;5075918;28;20488;-68
2023/09/24 10:42:09;;;;;;;3.47;1.50;;;17.80;99.90;;;;;;5075962;28;20465;-68
2023/09/24 10:44:36;;;;;;;3.38;1.40;;;17.80;99.90;;;;;;5075370;28;20573;-68
2023/09/24 10:47:34;;;;;;;2.65;1.15;;;17.80;99.90;;;;;;5075382;28;20044;-67
2023/09/24 10:50:06;;;;;;;3.85;1.40;;;17.80;99.90;;;;;;5070617;28;20060;-67
2023/09/24 10:52:59;;;;;;;3.83;1.35;;;17.80;99.90;;;;;;5075936;28;20044;-68
2023/09/24 10:55:28;;;;;;;3.30;1.77;;;17.80;99.90;;;;;;5075620;28;20497;-68
2023/09/24 10:57:55;;;;;;;2.70;1.10;;;17.80;99.90;;;;;;5075302;28;20169;-68
2023/09/24 11:00:23;;;;;;;3.17;0.98;;;17.70;99.90;;;;;;5075197;28;20048;-68
2023/09/24 11:02:59;;;;;;;1.80;0.90;;;17.70;99.90;;;;;;5075045;28;20052;-68
2023/09/24 11:05:25;;;;;;;;;;;17.60;99.90;;;;;;5075379;28;20048;-68
2023/09/24 11:07:52;;;;;;;3.92;1.30;;;17.60;99.90;;;;;;5075014;28;19924;-68
2023/09/24 11:10:19;;;;;;;3.80;1.00;;;17.50;99.90;;;;;;5075018;28;20049;-68
2023/09/24 11:12:49;;;;;;;3.35;1.15;;;17.50;99.90;;;;;;5073859;28;20105;-68
2023/09/24 11:15:18;;;;;;;2.67;1.08;;;17.50;99.90;;;;;;5075729;28;20044;-68
2023/09/24 11:17:47;;;;;;;2.47;0.90;;;17.50;99.90;;;;;;5074902;28;20048;-68
2023/09/24 11:20:17;;;;;;;2.13;1.10;;;17.50;99.90;;;;;;5074757;28;20507;-68
2023/09/24 11:22:43;;;;;;;2.45;1.02;;;17.50;99.90;;;;;;5075067;28;20193;-68
2023/09/24 11:25:14;;;;;;;2.75;1.00;;;17.60;99.90;;;;;;5075227;28;20511;-67
2023/09/24 11:27:51;;;;;;;2.42;1.10;;;17.50;99.90;;;;;;5075544;28;20044;-68
2023/09/24 11:30:21;;;;;;;2.60;1.40;;;17.40;99.90;;;;;;5074562;28;20044;-68
2023/09/24 11:32:49;;;;;;;2.45;1.00;;;17.40;99.90;;;;;;5074580;28;20060;-68
2023/09/24 11:35:22;;;;;;;2.88;1.15;;;17.40;99.90;;;;;;5074558;28;20416;-68
2023/09/24 11:37:49;;;;;;;1.98;1.00;;;17.50;99.90;;;;;;5074709;28;20044;-68
2023/09/24 11:40:40;;;;;;;3.03;0.90;;;17.50;99.90;;;;;;5074381;28;20106;-68
2023/09/24 11:43:10;;;;;;;4.38;1.00;;;17.60;99.90;;;;;;5074402;28;20040;-68
2023/09/24 11:45:39;;;;;;;2.60;1.00;;;17.70;99.90;;;;;;5074467;28;20063;-68
2023/09/24 11:48:11;;;;;;;2.17;1.20;;;17.70;99.90;;;;;;5074117;28;20051;-68
2023/09/24 11:50:38;;;;;;;3.20;1.17;;;17.70;99.90;;;;;;5074294;28;20052;-68
2023/09/24 11:53:05;;;;;;;2.97;1.02;;;17.70;99.90;;;;;;5073766;28;20431;-68
2023/09/24 11:55:31;;;;;;;2.03;1.10;;;17.70;99.90;;;;;;5073799;28;20561;-68
2023/09/24 11:57:57;;;;;;;2.50;1.00;;;17.80;99.90;;;;;;5073613;28;20098;-68
2023/09/24 12:00:24;;;;;;;2.00;0.85;;;17.80;99.90;;;;;;5073959;28;20482;-67
2023/09/24 12:02:50;;;;;;;3.65;1.20;;;17.90;99.90;;;;;;5073963;28;20053;-67
2023/09/24 12:05:16;;;;;;;4.15;0.98;;;17.90;99.90;;;;;;5073939;28;20044;-67
2023/09/24 12:07:42;;;;;;;2.80;0.90;;;17.90;99.90;;;;;;5072685;28;20047;-67
2023/09/24 12:10:08;;;;;;;2.60;1.08;;;17.90;99.90;;;;;;5073764;28;20044;-67
2023/09/24 12:12:34;;;;;;;2.83;1.10;;;17.90;99.90;;;;;;5074328;28;20182;-68
2023/09/24 12:15:00;;;;;;;3.47;1.08;;;17.90;99.90;;;;;;5073790;28;20489;-68
2023/09/24 12:17:27;;;;;;;3.47;1.00;;;17.90;99.90;;;;;;5073910;28;20055;-68
2023/09/24 12:19:53;;;;;;;1.92;0.88;;;17.90;99.90;;;;;;5072614;28;20044;-67
2023/09/24 12:22:20;;;;;;;3.55;1.10;;;17.90;99.90;;;;;;5074428;28;20071;-67
2023/09/24 12:24:46;;;;;;;3.05;1.10;;;17.80;99.90;;;;;;5073432;28;20497;-67
2023/09/24 12:27:12;;;;;;;2.78;1.00;;;17.90;99.90;;;;;;5073738;28;20048;-68
2023/09/24 12:29:37;;;;;;;3.13;1.20;;;17.90;99.90;;;;;;5073221;28;20051;-68
2023/09/24 12:32:03;;;;;;;4.70;1.10;;;18.00;99.90;;;;;;5073844;28;20075;-67
2023/09/24 12:34:29;;;;;;;2.40;0.88;;;18.00;99.90;;;;;;5073678;28;20052;-67
2023/09/24 12:36:55;;;;;;;2.38;0.82;;;18.10;99.90;;;;;;5073238;28;20119;-68
2023/09/24 12:39:20;;;;;;;2.38;0.93;;;18.10;99.90;;;;;;5073541;28;20052;-68
2023/09/24 12:41:46;;;;;;;1.67;0.90;;;18.20;99.90;;;;;;5074060;28;20048;-68
2023/09/24 12:44:12;;;;;;;2.72;0.98;;;18.20;99.90;;;;;;5072689;28;20489;-68
2023/09/24 12:46:38;;;;;;;1.80;1.00;;;18.10;99.90;;;;;;5073978;28;20177;-68
2023/09/24 12:49:04;;;;;;;2.30;1.00;;;18.00;99.90;;;;;;5056383;28;20040;-67
2023/09/24 12:51:30;;;;;;;3.35;0.85;;;18.00;99.90;;;;;;5073498;28;20460;-68